Time;durP1;ratioP1;P1;durP2;ratioP2;P2;SDS_P1;SDS_P2;PMS_P1;PMS_P2;Temp;Humidity;BMP_temperature;BMP_pressure;BME280_temperature;BME280_humidity;BME280_pressure;Samples;Min_cycle;Max_cycle;Signal;HPM_P1;HPM_P2
2022/05/14 00:00:07;;;;;;;1146.53;999.90;;;;;;;14.26;52.40;101357.59;689623;28;45052;-68
2022/05/14 00:00:31;;;;;;;1144.50;999.90;;;;;;;14.22;52.77;101350.88;690643;28;60879;-70
2022/05/14 00:00:54;;;;;;;1140.53;999.90;;;;;;;14.18;52.72;101350.38;690397;28;45219;-69
2022/05/14 00:01:16;;;;;;;1138.53;999.90;;;;;;;14.15;52.81;101345.34;690508;28;46325;-69
2022/05/14 00:01:38;;;;;;;1135.93;999.90;;;;;;;14.12;52.90;101348.44;689433;28;67244;-69
2022/05/14 00:01:59;;;;;;;1119.38;999.90;;;;;;;14.11;52.86;101346.72;691602;28;22443;-70
2022/05/14 00:02:20;;;;;;;1090.78;999.90;;;;;;;14.10;52.61;101347.75;691186;28;23451;-68
2022/05/14 00:02:42;;;;;;;1144.47;999.90;;;;;;;14.08;52.81;101354.41;689366;28;23239;-69
2022/05/14 00:03:03;;;;;;;1152.57;999.90;;;;;;;14.05;52.77;101353.75;688539;28;47362;-69
2022/05/14 00:03:25;;;;;;;1147.00;999.90;;;;;;;14.02;52.91;101345.97;688840;28;46286;-69
2022/05/14 00:03:47;;;;;;;1146.43;999.90;;;;;;;14.03;53.00;101353.09;688511;28;44474;-68
2022/05/14 00:04:10;;;;;;;1144.50;999.90;;;;;;;14.01;52.88;101352.44;688686;28;44593;-68
2022/05/14 00:04:31;;;;;;;1151.63;999.90;;;;;;;14.00;53.29;101350.75;687635;28;69575;-69
2022/05/14 00:04:52;;;;;;;1148.13;999.90;;;;;;;13.99;52.96;101346.31;689550;28;23468;-69
2022/05/14 00:05:13;;;;;;;1142.90;999.90;;;;;;;13.98;53.07;101346.50;689449;28;22365;-68
2022/05/14 00:05:36;;;;;;;1131.53;999.90;;;;;;;13.97;52.98;101350.28;689582;28;22391;-69
2022/05/14 00:05:59;;;;;;;1086.23;999.90;;;;;;;13.94;53.36;101348.75;687991;28;69519;-70
2022/05/14 00:06:22;;;;;;;998.28;932.60;;;;;;;13.92;53.06;101350.81;686481;28;91269;-70
2022/05/14 00:06:43;;;;;;;989.28;924.60;;;;;;;13.94;53.05;101350.66;683660;28;89144;-69
2022/05/14 00:07:05;;;;;;;997.35;932.25;;;;;;;13.92;53.43;101347.25;686807;28;23509;-68
2022/05/14 00:07:26;;;;;;;1049.00;981.05;;;;;;;13.92;53.38;101349.97;685383;28;45217;-69
2022/05/14 00:07:48;;;;;;;1010.65;944.83;;;;;;;13.91;53.44;101351.84;687029;28;21537;-70
2022/05/14 00:08:10;;;;;;;999.92;934.42;;;;;;;13.91;53.29;101351.00;685733;28;47544;-70
2022/05/14 00:08:32;;;;;;;1021.25;954.63;;;;;;;13.89;53.52;101348.47;686219;28;44388;-70
2022/05/14 00:08:54;;;;;;;1042.70;975.17;;;;;;;13.86;53.47;101343.41;686190;28;45053;-69
2022/05/14 00:09:15;;;;;;;1032.28;965.35;;;;;;;13.85;53.80;101347.97;686117;28;47452;-69
2022/05/14 00:09:36;;;;;;;1010.13;944.03;;;;;;;13.82;53.89;101350.22;686389;28;21531;-68
2022/05/14 00:09:57;;;;;;;1010.85;944.60;;;;;;;13.80;53.55;101352.28;686544;28;23437;-69
2022/05/14 00:10:21;;;;;;;1024.78;958.17;;;;;;;13.78;53.72;101348.94;686884;28;22214;-68
2022/05/14 00:13:24;;;;;;;1023.20;956.42;;;;;;;13.72;53.72;101346.94;686906;28;87244;-68
2022/05/14 00:13:45;;;;;;;1008.58;942.60;;;;;;;13.70;53.93;101349.84;688273;28;46261;-69
2022/05/14 00:14:07;;;;;;;1041.53;973.85;;;;;;;13.68;54.28;101344.59;689763;28;22390;-69
2022/05/14 00:14:29;;;;;;;1012.22;946.22;;;;;;;13.65;54.15;101344.09;688803;28;47637;-68
2022/05/14 00:14:50;;;;;;;1008.45;942.65;;;;;;;13.63;54.41;101346.16;688357;28;46294;-69
2022/05/14 00:15:11;;;;;;;1019.88;953.55;;;;;;;13.63;54.10;101344.28;689495;28;23743;-71
2022/05/14 00:15:35;;;;;;;1010.90;944.67;;;;;;;13.57;54.35;101339.56;689409;28;23407;-70
2022/05/14 00:15:58;;;;;;;1009.35;943.25;;;;;;;13.61;53.99;101346.34;686753;28;93528;-69
2022/05/14 00:16:20;;;;;;;1009.78;943.85;;;;;;;13.60;54.44;101344.63;687925;28;69399;-68
2022/05/14 00:16:42;;;;;;;1018.53;952.38;;;;;;;13.60;54.45;101338.38;686090;28;89351;-69
2022/05/14 00:17:04;;;;;;;1046.07;978.25;;;;;;;13.63;54.30;101352.41;689611;28;23745;-69
2022/05/14 00:17:25;;;;;;;1030.70;963.83;;;;;;;13.62;54.11;101348.03;688049;28;69429;-69
2022/05/14 00:17:47;;;;;;;1023.67;957.10;;;;;;;13.64;54.40;101347.84;689475;28;22384;-68
2022/05/14 00:18:09;;;;;;;1026.00;959.55;;;;;;;13.58;54.38;101341.28;689457;28;21515;-69
2022/05/14 00:18:30;;;;;;;1035.85;968.83;;;;;;;13.63;54.47;101343.44;688529;28;46386;-68
2022/05/14 00:18:53;;;;;;;1029.65;962.80;;;;;;;13.63;54.35;101338.84;688886;28;47755;-69
2022/05/14 00:19:14;;;;;;;1027.47;960.60;;;;;;;13.65;54.41;101342.25;687920;28;70313;-69
2022/05/14 00:19:35;;;;;;;1029.65;962.40;;;;;;;13.67;54.22;101348.31;689241;28;21531;-70
2022/05/14 00:19:56;;;;;;;1028.55;961.28;;;;;;;13.67;54.26;101334.75;689292;28;22388;-68
2022/05/14 00:20:18;;;;;;;1015.13;948.67;;;;;;;13.69;54.16;101342.72;689155;28;22496;-69
2022/05/14 00:20:40;;;;;;;1017.55;950.95;;;;;;;13.69;53.95;101346.25;688249;28;45223;-68
2022/05/14 00:21:01;;;;;;;1049.70;981.35;;;;;;;13.66;54.24;101334.94;689383;28;23417;-68
2022/05/14 00:21:22;;;;;;;1051.05;982.83;;;;;;;13.68;54.26;101339.16;688737;28;23319;-69
2022/05/14 00:21:43;;;;;;;1020.47;953.78;;;;;;;13.67;54.25;101342.91;689408;28;23495;-68
2022/05/14 00:22:05;;;;;;;1019.45;952.95;;;;;;;13.70;53.82;101344.41;689620;28;22361;-68
2022/05/14 00:22:26;;;;;;;1014.22;947.90;;;;;;;13.67;53.74;101340.19;688151;28;45223;-69
2022/05/14 00:22:47;;;;;;;1035.10;967.50;;;;;;;13.66;54.20;101335.78;688765;28;23480;-70
2022/05/14 00:23:08;;;;;;;1017.75;951.33;;;;;;;13.63;54.31;101338.84;689192;28;23129;-68
2022/05/14 00:23:31;;;;;;;1008.13;942.25;;;;;;;13.64;53.92;101345.97;690212;28;1610;-68
2022/05/14 00:23:52;;;;;;;1015.70;949.45;;;;;;;13.64;53.91;101345.16;688621;28;46349;-68
2022/05/14 00:24:13;;;;;;;1025.70;959.00;;;;;;;13.62;53.94;101339.91;689250;28;22411;-70
2022/05/14 00:24:34;;;;;;;1021.30;954.67;;;;;;;13.62;54.23;101347.16;689309;28;21535;-69
2022/05/14 00:24:57;;;;;;;1026.15;959.28;;;;;;;13.61;54.10;101343.63;690172;28;22385;-69
2022/05/14 00:25:19;;;;;;;1022.67;956.03;;;;;;;13.60;54.23;101343.81;688651;28;46268;-70
2022/05/14 00:25:41;;;;;;;1026.15;959.47;;;;;;;13.60;54.50;101346.53;688757;28;44283;-68
2022/05/14 00:26:02;;;;;;;1013.90;947.85;;;;;;;13.58;54.36;101338.56;688091;28;69109;-69
2022/05/14 00:26:24;;;;;;;1036.90;969.63;;;;;;;13.60;54.00;101341.09;688532;28;21534;-68
2022/05/14 00:26:45;;;;;;;1062.22;993.75;;;;;;;13.56;54.19;101343.34;688498;28;46280;-69
2022/05/14 00:27:07;;;;;;;1058.35;989.88;;;;;;;13.57;54.14;101342.28;688817;28;47467;-69
2022/05/14 00:27:28;;;;;;;1081.72;999.90;;;;;;;13.57;54.55;101339.56;689490;28;21405;-70
2022/05/14 00:27:49;;;;;;;1055.68;987.08;;;;;;;13.56;54.39;101335.19;689316;28;23485;-69
2022/05/14 00:28:11;;;;;;;1086.25;999.90;;;;;;;13.57;54.43;101336.03;689604;28;22392;-68
2022/05/14 00:28:33;;;;;;;1134.18;999.90;;;;;;;13.57;54.40;101328.72;688384;28;43830;-69
2022/05/14 00:28:54;;;;;;;1172.88;999.90;;;;;;;13.59;54.03;101337.53;690963;28;45216;-69
2022/05/14 00:29:15;;;;;;;1091.25;999.90;;;;;;;13.60;54.29;101332.94;691244;28;23733;-71
2022/05/14 00:29:37;;;;;;;998.92;933.25;;;;;;;13.63;54.38;101336.13;691368;28;22420;-69
2022/05/14 00:29:58;;;;;;;1022.40;955.25;;;;;;;13.62;54.23;101336.31;688398;28;44191;-69
2022/05/14 00:30:23;;;;;;;1030.35;963.20;;;;;;;13.65;54.12;101335.94;686637;28;21541;-70
2022/05/14 00:30:44;;;;;;;1023.13;956.08;;;;;;;13.66;53.86;101337.66;683950;28;90502;-69
2022/05/14 00:31:10;;;;;;;1024.57;957.50;;;;;;;13.63;54.11;101332.59;685982;28;22199;-69
2022/05/14 00:31:37;;;;;;;1034.53;966.25;;;;;;;13.66;54.22;101340.38;682095;28;99341;-69
2022/05/14 00:31:59;;;;;;;1034.63;966.97;;;;;;;13.64;54.33;101335.13;683530;28;115101;-69
2022/05/14 00:32:20;;;;;;;1044.72;976.92;;;;;;;13.63;54.03;101343.44;688188;28;23569;-69
2022/05/14 00:32:42;;;;;;;1036.90;969.50;;;;;;;13.61;53.83;101332.75;689247;28;23386;-69
2022/05/14 00:33:04;;;;;;;1034.72;967.30;;;;;;;13.61;54.15;101337.38;687399;28;69813;-69
2022/05/14 00:33:26;;;;;;;1035.20;967.63;;;;;;;13.60;53.96;101338.38;689485;28;14620;-69
2022/05/14 00:33:48;;;;;;;1034.60;967.08;;;;;;;13.58;54.40;101329.59;688285;28;23509;-69
2022/05/14 00:34:09;;;;;;;1022.90;955.85;;;;;;;13.57;54.08;101338.75;687018;28;43160;-69
2022/05/14 00:34:30;;;;;;;1033.10;965.90;;;;;;;13.57;54.50;101339.56;686667;28;23606;-69
2022/05/14 00:34:51;;;;;;;1031.43;964.35;;;;;;;13.58;54.07;101332.31;686747;28;22198;-69
2022/05/14 00:35:14;;;;;;;1062.97;994.08;;;;;;;13.54;54.40;101325.53;685946;28;45304;-69
2022/05/14 00:35:36;;;;;;;1144.75;999.90;;;;;;;13.57;54.30;101330.59;684552;28;69413;-69
2022/05/14 00:35:57;;;;;;;1148.65;999.90;;;;;;;13.58;54.45;101330.41;686711;28;18096;-69
2022/05/14 00:36:19;;;;;;;1133.07;999.90;;;;;;;13.59;54.35;101331.25;682505;28;46660;-69
2022/05/14 00:36:40;;;;;;;1022.63;955.80;;;;;;;13.61;54.50;101332.75;687273;28;44381;-68
2022/05/14 00:37:02;;;;;;;1032.13;964.95;;;;;;;13.59;54.07;101337.53;689330;28;22422;-69
2022/05/14 00:37:23;;;;;;;1029.18;962.05;;;;;;;13.62;54.20;101339.91;689230;28;23461;-69
2022/05/14 00:37:45;;;;;;;1022.20;955.33;;;;;;;13.61;54.51;101332.75;688949;28;22242;-69
2022/05/14 00:38:08;;;;;;;1071.60;999.90;;;;;;;13.61;54.47;101335.47;687506;28;69289;-69
2022/05/14 00:38:30;;;;;;;1035.97;968.70;;;;;;;13.63;54.32;101333.41;690387;28;69516;-68
2022/05/14 00:38:54;;;;;;;1117.55;999.90;;;;;;;13.64;54.03;101335.13;691581;28;21225;-69
2022/05/14 00:39:15;;;;;;;1187.85;999.90;;;;;;;13.64;54.39;101334.28;689363;28;92272;-69
2022/05/14 00:39:36;;;;;;;1189.75;999.90;;;;;;;13.65;54.46;101330.53;688124;28;44390;-69
2022/05/14 00:39:59;;;;;;;1162.63;999.90;;;;;;;13.60;54.14;101325.66;689239;28;21521;-69
2022/05/14 00:40:26;;;;;;;1146.13;999.90;;;;;;;13.66;54.29;101333.06;688517;28;44278;-69
2022/05/14 00:40:54;;;;;;;1113.57;999.90;;;;;;;13.66;54.10;101333.06;684507;28;138018;-68
2022/05/14 00:41:16;;;;;;;1107.55;999.90;;;;;;;13.68;54.40;101333.75;685004;28;136258;-69
2022/05/14 00:41:39;;;;;;;1066.50;997.28;;;;;;;13.69;54.22;101332.69;687495;28;22395;-69
2022/05/14 00:42:01;;;;;;;1025.68;959.08;;;;;;;13.70;54.00;101336.28;687457;28;90748;-69
2022/05/14 00:42:22;;;;;;;1035.97;968.95;;;;;;;13.70;54.43;101331.69;690312;28;23534;-69
2022/05/14 00:42:43;;;;;;;1032.95;965.92;;;;;;;13.72;53.92;101336.91;690125;28;22292;-69
2022/05/14 00:43:05;;;;;;;1031.35;964.60;;;;;;;13.73;53.91;101340.47;686571;28;21480;-69
2022/05/14 00:43:27;;;;;;;1008.92;942.90;;;;;;;13.72;54.00;101331.50;684478;28;67472;-69
2022/05/14 00:43:50;;;;;;;1018.95;952.65;;;;;;;13.72;54.23;101334.22;685363;28;45256;-69
2022/05/14 00:44:11;;;;;;;1037.53;970.45;;;;;;;13.73;53.79;101335.91;685061;28;67500;-69
2022/05/14 00:44:33;;;;;;;1055.03;987.03;;;;;;;13.73;53.84;101333.19;684103;28;21527;-69
2022/05/14 00:44:54;;;;;;;1025.70;959.15;;;;;;;13.72;54.18;101334.22;682515;28;45216;-69
2022/05/14 00:45:16;;;;;;;1021.47;955.13;;;;;;;13.70;54.00;101334.38;685246;28;22407;-69
2022/05/14 00:45:41;;;;;;;1020.33;953.88;;;;;;;13.72;54.05;101336.91;683701;28;46363;-70
2022/05/14 00:46:11;;;;;;;1036.72;969.88;;;;;;;13.69;53.85;101335.41;682480;28;114905;-69
2022/05/14 00:46:41;;;;;;;1037.35;970.25;;;;;;;13.69;54.23;101334.56;683058;28;136102;-69
2022/05/14 00:47:06;;;;;;;1032.63;965.90;;;;;;;13.66;53.85;101335.78;686973;28;137505;-69
2022/05/14 00:47:31;;;;;;;1033.07;966.30;;;;;;;13.66;54.24;101335.78;686756;28;113275;-69
2022/05/14 00:47:53;;;;;;;1037.88;970.95;;;;;;;13.61;54.01;101326.50;685995;28;113556;-69
2022/05/14 00:48:15;;;;;;;1045.47;977.72;;;;;;;13.60;54.01;101328.34;685105;28;67374;-69
2022/05/14 00:48:39;;;;;;;1024.85;958.28;;;;;;;13.63;53.99;101332.59;686380;28;21510;-69
2022/05/14 00:49:00;;;;;;;1034.43;967.42;;;;;;;13.62;54.18;101337.19;683647;28;92530;-69
2022/05/14 00:49:23;;;;;;;1045.53;977.95;;;;;;;13.61;54.06;101334.66;686202;28;21457;-69
2022/05/14 00:49:45;;;;;;;1048.72;980.92;;;;;;;13.59;54.02;101333.97;686129;28;44568;-69
2022/05/14 00:50:09;;;;;;;1060.25;991.90;;;;;;;13.57;54.19;101330.59;687908;28;46448;-68
2022/05/14 00:50:37;;;;;;;1080.43;999.90;;;;;;;13.54;54.37;101331.78;687913;28;92284;-69
2022/05/14 00:50:58;;;;;;;1046.07;978.33;;;;;;;13.52;54.34;101334.69;684397;28;160521;-69
2022/05/14 00:51:25;;;;;;;1009.28;943.35;;;;;;;13.51;54.17;101335.75;687871;28;44172;-69
2022/05/14 00:51:47;;;;;;;1043.50;976.15;;;;;;;13.49;54.59;101324.22;680930;28;157470;-69
2022/05/14 00:52:13;;;;;;;1040.88;973.83;;;;;;;13.46;54.52;101334.59;689172;28;22390;-69
2022/05/14 00:52:35;;;;;;;1049.93;982.25;;;;;;;13.44;54.65;101329.34;684963;28;161376;-69
2022/05/14 00:53:00;;;;;;;1073.80;999.90;;;;;;;13.40;54.80;101327.16;686772;28;22383;-69
2022/05/14 00:53:26;;;;;;;1079.30;999.90;;;;;;;13.42;54.65;101333.28;683463;28;113372;-69
2022/05/14 00:53:49;;;;;;;1041.43;973.78;;;;;;;13.39;54.83;101326.34;684666;28;137835;-69
2022/05/14 00:54:12;;;;;;;1068.00;998.63;;;;;;;13.39;54.47;101337.19;683097;28;92453;-69
2022/05/14 00:54:37;;;;;;;1028.97;962.17;;;;;;;13.38;54.62;101335.50;682627;28;67149;-69
2022/05/14 00:55:01;;;;;;;1039.93;972.85;;;;;;;13.37;54.67;101333.81;683988;28;92198;-69
2022/05/14 00:55:22;;;;;;;1042.65;975.50;;;;;;;13.36;54.53;101332.13;681272;28;115426;-69
2022/05/14 00:55:45;;;;;;;1039.10;972.08;;;;;;;13.36;54.69;101334.00;684144;28;22208;-69
2022/05/14 00:56:09;;;;;;;1029.75;963.10;;;;;;;13.33;55.00;101327.88;684201;28;69414;-69
2022/05/14 00:56:34;;;;;;;1032.68;965.88;;;;;;;13.34;54.81;101340.44;682974;28;70334;-69
2022/05/14 00:56:57;;;;;;;1022.45;956.13;;;;;;;13.29;55.07;101322.97;682748;28;137786;-69
2022/05/14 00:57:21;;;;;;;1028.65;962.10;;;;;;;13.31;55.05;101329.91;686320;28;68362;-69
2022/05/14 00:57:44;;;;;;;1030.80;963.97;;;;;;;13.31;55.17;101331.78;686356;28;92312;-68
2022/05/14 00:58:08;;;;;;;1039.25;971.97;;;;;;;13.33;55.18;101333.31;687498;28;69193;-68
2022/05/14 00:58:33;;;;;;;1018.75;952.53;;;;;;;13.28;55.10;101327.56;686965;28;90316;-69
2022/05/14 00:58:59;;;;;;;1058.60;990.53;;;;;;;13.29;54.91;101331.97;682525;28;113376;-68
2022/05/14 00:59:23;;;;;;;1053.57;985.58;;;;;;;13.29;55.30;101333.81;681757;28;137950;-68
2022/05/14 00:59:45;;;;;;;1041.65;973.95;;;;;;;13.26;55.11;101334.19;685575;28;114323;-68
2022/05/14 01:00:09;;;;;;;1047.68;979.80;;;;;;;13.25;55.47;101336.06;686690;28;46257;-68
2022/05/14 01:00:32;;;;;;;1050.22;982.50;;;;;;;13.25;55.38;101336.06;684978;28;92258;-69
2022/05/14 01:00:54;;;;;;;1047.97;980.28;;;;;;;13.25;55.20;101337.94;681138;28;69388;-69
2022/05/14 01:01:17;;;;;;;1051.78;984.03;;;;;;;13.24;55.27;101341.66;684138;28;46469;-69
2022/05/14 01:01:38;;;;;;;1083.47;999.90;;;;;;;13.23;55.13;101332.69;683186;28;69437;-69
2022/05/14 01:01:59;;;;;;;1094.18;999.90;;;;;;;13.20;55.16;101332.19;683839;28;22556;-69
2022/05/14 01:02:21;;;;;;;1038.53;970.97;;;;;;;13.21;55.15;101332.00;684041;28;23723;-69
2022/05/14 01:02:42;;;;;;;1044.28;976.53;;;;;;;13.22;55.25;101339.13;682777;28;46415;-69
2022/05/14 01:03:03;;;;;;;1051.07;983.08;;;;;;;13.21;55.21;101339.31;681704;28;22404;-68
2022/05/14 01:03:24;;;;;;;1056.80;988.47;;;;;;;13.21;55.21;101337.44;683695;28;22353;-69
2022/05/14 01:03:46;;;;;;;1038.90;971.63;;;;;;;13.19;55.58;101333.22;680278;29;44615;-68
2022/05/14 01:04:09;;;;;;;1044.85;977.35;;;;;;;13.21;55.27;101337.44;681432;28;22190;-69
2022/05/14 01:04:30;;;;;;;1035.03;968.00;;;;;;;13.22;55.37;101339.13;681696;28;67452;-69
2022/05/14 01:04:51;;;;;;;1034.20;967.25;;;;;;;13.22;55.40;101335.59;685845;28;22383;-69
2022/05/14 01:05:14;;;;;;;1036.38;969.45;;;;;;;13.19;55.48;101334.06;686588;28;46321;-69
2022/05/14 01:05:36;;;;;;;1042.32;975.03;;;;;;;13.23;55.56;101339.97;687809;28;46281;-69
2022/05/14 01:05:59;;;;;;;1040.35;973.15;;;;;;;13.23;55.23;101338.13;689496;28;46295;-69
2022/05/14 01:06:20;;;;;;;1051.43;983.80;;;;;;;13.17;55.33;101333.41;688259;28;70393;-69
2022/05/14 01:06:50;;;;;;;1033.97;967.05;;;;;;;13.21;55.67;101337.44;688990;28;80211;-69
2022/05/14 01:07:14;;;;;;;1036.43;969.28;;;;;;;13.21;55.22;101337.44;687853;28;135756;-69
2022/05/14 01:07:39;;;;;;;1034.82;967.80;;;;;;;13.19;55.34;101331.34;685118;28;137857;-69
2022/05/14 01:08:03;;;;;;;1030.97;964.17;;;;;;;13.21;55.58;101331.19;685876;28;45215;-69
2022/05/14 01:08:24;;;;;;;1104.35;999.90;;;;;;;13.19;55.71;101331.34;684357;28;69227;-69
2022/05/14 01:08:47;;;;;;;1161.60;999.90;;;;;;;13.21;55.47;101329.28;685464;28;45256;-68
2022/05/14 01:09:09;;;;;;;1171.95;999.90;;;;;;;13.21;55.48;101332.00;684322;28;68447;-69
2022/05/14 01:09:30;;;;;;;1146.97;999.90;;;;;;;13.20;55.47;101332.19;686657;28;46801;-69
2022/05/14 01:09:56;;;;;;;1086.20;999.90;;;;;;;13.22;55.74;101339.13;689041;28;23486;-69
2022/05/14 01:10:20;;;;;;;1039.95;972.53;;;;;;;13.25;55.42;101340.66;682437;28;138835;-68
2022/05/14 01:10:44;;;;;;;1031.50;964.55;;;;;;;13.24;55.27;101334.38;679124;28;115043;-70
2022/05/14 01:11:06;;;;;;;1020.45;953.88;;;;;;;13.22;55.35;101328.28;679301;28;46821;-69
2022/05/14 01:11:28;;;;;;;1040.25;973.05;;;;;;;13.25;55.32;101341.50;679203;28;69454;-69
2022/05/14 01:11:50;;;;;;;1034.53;967.70;;;;;;;13.25;55.45;101337.94;681170;28;22631;-69
2022/05/14 01:12:13;;;;;;;1038.35;971.42;;;;;;;13.21;55.46;101339.31;681943;28;44137;-69
2022/05/14 01:12:36;;;;;;;1044.22;976.80;;;;;;;13.23;55.68;101343.53;680384;28;68936;-69
2022/05/14 01:13:00;;;;;;;1063.75;995.28;;;;;;;13.23;55.37;101346.25;683989;28;45264;-69
2022/05/14 01:13:23;;;;;;;1058.50;990.45;;;;;;;13.21;55.32;101333.88;679973;28;136137;-69
2022/05/14 01:13:44;;;;;;;1049.57;981.97;;;;;;;13.22;55.27;101341.84;680496;29;46063;-69
2022/05/14 01:14:07;;;;;;;1042.80;975.38;;;;;;;13.20;55.44;101343.03;681387;28;21285;-69
2022/05/14 01:14:30;;;;;;;1045.65;978.05;;;;;;;13.19;55.82;101341.38;678083;29;115655;-68
2022/05/14 01:14:53;;;;;;;1050.72;982.92;;;;;;;13.14;55.86;101333.78;680178;28;69241;-69
2022/05/14 01:15:19;;;;;;;1051.57;983.88;;;;;;;13.16;55.58;101340.72;682591;28;45215;-69
2022/05/14 01:15:49;;;;;;;1060.57;992.25;;;;;;;13.15;55.54;101339.00;681041;28;113550;-69
2022/05/14 01:16:11;;;;;;;1054.18;986.28;;;;;;;13.14;55.86;101342.75;680502;28;137694;-69
2022/05/14 01:16:33;;;;;;;1040.25;972.85;;;;;;;13.13;55.63;101340.22;684567;28;44372;-68
2022/05/14 01:16:55;;;;;;;1038.82;971.67;;;;;;;13.15;55.65;101343.59;681279;28;65142;-69
2022/05/14 01:17:18;;;;;;;1052.95;985.03;;;;;;;13.10;55.64;101337.84;680543;28;46313;-69
2022/05/14 01:17:40;;;;;;;1048.45;980.90;;;;;;;13.15;55.72;101344.44;681767;28;67446;-69
2022/05/14 01:18:01;;;;;;;1048.97;981.25;;;;;;;13.15;55.79;101341.72;684676;28;21491;-69
2022/05/14 01:18:26;;;;;;;1124.57;999.90;;;;;;;13.15;55.78;101338.19;685220;28;45626;-69
2022/05/14 01:18:49;;;;;;;1151.03;999.90;;;;;;;13.15;55.89;101330.03;684449;28;114682;-69
2022/05/14 01:19:11;;;;;;;1160.07;999.90;;;;;;;13.15;55.75;101332.75;685210;28;68327;-69
2022/05/14 01:19:32;;;;;;;1173.30;999.90;;;;;;;13.15;55.83;101343.59;685610;28;41311;-68
2022/05/14 01:19:55;;;;;;;1169.70;999.90;;;;;;;13.16;55.66;101340.72;681503;28;69530;-69
2022/05/14 01:20:19;;;;;;;1166.20;999.90;;;;;;;13.13;55.66;101329.34;681756;29;22159;-69
2022/05/14 01:20:41;;;;;;;1051.85;983.63;;;;;;;13.20;55.83;101337.63;680257;28;92247;-69
2022/05/14 01:21:05;;;;;;;1028.90;962.10;;;;;;;13.21;55.96;101348.28;681728;28;46401;-69
2022/05/14 01:21:33;;;;;;;1028.00;961.20;;;;;;;13.22;55.48;101338.31;679227;28;92255;-69
2022/05/14 01:22:05;;;;;;;1034.65;967.75;;;;;;;13.24;55.62;101345.22;682056;28;160545;-69
2022/05/14 01:22:38;;;;;;;1048.60;981.08;;;;;;;13.24;55.98;101341.66;682808;28;136758;-69
2022/05/14 01:23:16;;;;;;;1042.05;974.67;;;;;;;13.24;55.50;101338.97;680129;28;136087;-69
2022/05/14 01:26:31;;;;;;;1034.82;967.85;;;;;;;13.29;55.67;101340.13;677878;28;137066;-69
2022/05/14 01:26:58;;;;;;;1039.22;972.08;;;;;;;13.30;55.36;101339.06;684130;28;157279;-69
2022/05/14 01:27:19;;;;;;;1029.20;962.22;;;;;;;13.30;55.82;101339.06;685331;28;46728;-69
2022/05/14 01:27:41;;;;;;;1046.03;978.40;;;;;;;13.29;55.62;101337.41;684594;28;23287;-69
2022/05/14 01:28:03;;;;;;;1055.32;987.22;;;;;;;13.29;55.82;101331.97;683833;28;46664;-69
2022/05/14 01:28:25;;;;;;;1034.78;967.63;;;;;;;13.31;55.40;101332.63;682143;29;8321;-69
2022/05/14 01:28:47;;;;;;;1032.53;965.38;;;;;;;13.29;55.91;101345.53;678285;29;28916;-68
2022/05/14 01:29:10;;;;;;;1059.50;991.33;;;;;;;13.25;55.76;101329.81;681553;28;22401;-69
2022/05/14 01:29:32;;;;;;;1060.28;991.97;;;;;;;13.30;55.60;101333.66;676306;29;93239;-68
2022/05/14 01:29:59;;;;;;;1061.82;993.00;;;;;;;13.31;55.84;101334.50;673726;29;137829;-69
2022/05/14 01:30:22;;;;;;;1061.43;993.03;;;;;;;13.31;55.87;101334.50;678027;29;68997;-69
2022/05/14 01:30:46;;;;;;;1054.38;986.15;;;;;;;13.32;55.69;101331.63;681267;28;44387;-69
2022/05/14 01:31:07;;;;;;;1051.60;983.85;;;;;;;13.31;55.91;101334.50;680668;28;92266;-69
2022/05/14 01:31:29;;;;;;;1036.55;969.45;;;;;;;13.31;55.50;101335.34;684324;28;21648;-69
2022/05/14 01:31:54;;;;;;;1036.25;968.95;;;;;;;13.30;55.55;101330.94;683758;28;39208;-69
2022/05/14 01:32:16;;;;;;;1039.72;972.35;;;;;;;13.27;55.70;101327.75;681259;28;105285;-69
2022/05/14 01:32:37;;;;;;;1057.68;989.10;;;;;;;13.28;55.58;101330.28;682674;28;45250;-69
2022/05/14 01:33:05;;;;;;;1049.95;981.85;;;;;;;13.30;55.83;101333.66;684422;28;21551;-69
2022/05/14 01:33:31;;;;;;;1049.57;981.50;;;;;;;13.29;55.63;101333.81;680351;28;137691;-69
2022/05/14 01:33:53;;;;;;;1145.72;999.90;;;;;;;13.30;55.91;101336.34;679946;28;69237;-69
2022/05/14 01:34:17;;;;;;;1165.32;999.90;;;;;;;13.32;55.97;101338.88;681721;29;22387;-69
2022/05/14 01:34:39;;;;;;;1177.75;999.90;;;;;;;13.33;55.56;101338.75;679024;29;92206;-68
2022/05/14 01:35:01;;;;;;;1159.90;999.90;;;;;;;13.34;55.79;101345.88;684069;28;67449;-69
2022/05/14 01:35:25;;;;;;;1153.30;999.90;;;;;;;13.36;55.58;101336.72;681641;28;67222;-68
2022/05/14 01:35:47;;;;;;;1157.60;999.90;;;;;;;13.32;55.48;101334.34;681756;28;45086;-69
2022/05/14 01:36:11;;;;;;;1143.00;999.90;;;;;;;13.34;55.56;101339.59;681387;28;115150;-69
2022/05/14 01:36:35;;;;;;;1082.93;999.90;;;;;;;13.35;55.66;101338.56;681545;28;46088;-69
2022/05/14 01:36:56;;;;;;;1034.25;966.90;;;;;;;13.32;55.89;101337.03;682064;28;69533;-69
2022/05/14 01:37:20;;;;;;;1045.93;977.80;;;;;;;13.32;55.87;101328.03;682904;28;22451;-69
2022/05/14 01:37:43;;;;;;;1056.20;987.58;;;;;;;13.36;55.78;101351.13;680313;28;136170;-68
2022/05/14 01:38:05;;;;;;;1072.35;999.65;;;;;;;13.36;56.02;101342.97;683094;28;45318;-69
2022/05/14 01:38:26;;;;;;;1124.32;999.90;;;;;;;13.37;55.93;101343.81;684619;28;44359;-69
2022/05/14 01:38:47;;;;;;;1082.85;999.90;;;;;;;13.35;55.93;101341.28;684741;28;22403;-69
2022/05/14 01:39:09;;;;;;;1073.13;999.90;;;;;;;13.38;55.59;101340.91;682489;28;22491;-69
2022/05/14 01:39:31;;;;;;;1067.97;998.78;;;;;;;13.40;55.69;101341.59;682545;28;69264;-69
2022/05/14 01:39:52;;;;;;;1067.80;998.60;;;;;;;13.40;55.70;101343.44;683403;28;44355;-68
2022/05/14 01:40:13;;;;;;;1069.57;999.65;;;;;;;13.40;55.57;101338.88;683840;28;22384;-69
2022/05/14 01:40:35;;;;;;;1070.65;999.90;;;;;;;13.40;55.91;101341.59;684419;28;23456;-69
2022/05/14 01:40:57;;;;;;;1077.45;999.90;;;;;;;13.36;55.86;101339.44;687748;28;23520;-69
2022/05/14 01:41:20;;;;;;;1080.53;999.90;;;;;;;13.36;55.64;101336.72;685583;28;67444;-69
2022/05/14 01:41:42;;;;;;;1074.00;999.90;;;;;;;13.42;56.02;101344.13;684762;28;69426;-69
2022/05/14 01:42:04;;;;;;;1068.13;999.03;;;;;;;13.41;55.68;101343.25;683607;28;21656;-69
2022/05/14 01:42:27;;;;;;;1081.10;999.90;;;;;;;13.43;55.65;101340.38;684122;28;2038;-69
2022/05/14 01:42:48;;;;;;;1069.93;999.90;;;;;;;13.43;55.74;101343.09;681095;28;45277;-69
2022/05/14 01:43:09;;;;;;;1050.57;982.58;;;;;;;13.45;55.88;101341.06;682405;28;22458;-69
2022/05/14 01:43:31;;;;;;;1031.97;964.97;;;;;;;13.46;55.62;101342.72;680792;28;46689;-69
2022/05/14 01:43:52;;;;;;;1080.75;999.90;;;;;;;13.44;55.85;101331.22;681810;28;46365;-69
2022/05/14 01:44:15;;;;;;;1042.57;974.80;;;;;;;13.47;55.80;101337.13;683562;28;21507;-69
2022/05/14 01:44:37;;;;;;;1028.28;961.38;;;;;;;13.49;55.76;101340.50;680932;28;70022;-69
2022/05/14 01:44:58;;;;;;;1032.55;965.42;;;;;;;13.48;55.92;101340.69;683160;28;22386;-69
2022/05/14 01:45:20;;;;;;;1038.90;971.55;;;;;;;13.49;55.95;101335.09;681871;28;46373;-69
2022/05/14 01:45:43;;;;;;;1055.18;986.83;;;;;;;13.40;55.68;101324.44;681852;28;6808;-69
2022/05/14 01:46:05;;;;;;;1056.65;987.97;;;;;;;13.50;55.82;101334.03;680845;28;67477;-69